DW8633 Weather Reports


Display with metric or nautical units.
time (UTC)temp
F
wind
direction
speed
MPH
gust
MPH
rain 1hr
in
rain 24hr
in
rain mn
in
humidity
%
barometer
mb
20220706070046 63 268 0.0 1.0 0.00 0.14 0.00 93 933.9
20220706065544 63 268 0.0 2.0 0.00 0.14 0.00 93 933.9
20220706065044 63 268 0.0 2.0 0.00 0.14 0.00 92 934.0
20220706064543 63 268 0.0 2.0 0.00 0.14 0.00 92 933.9
20220706064042 63 268 0.0 2.0 0.00 0.14 0.00 92 934.0
20220706063544 63 268 0.0 2.0 0.00 0.14 0.00 92 934.0
20220706063051 63 268 0.0 1.0 0.00 0.14 0.00 92 933.9
20220706062042 63 268 1.0 5.0 0.00 0.14 0.00 91 933.9
20220706061551 63 268 1.0 3.0 0.00 0.14 0.00 91 933.9
20220706061041 64 267 0.0 2.0 0.00 0.14 0.00 90 933.9
20220706060543 64 267 0.0 5.0 0.00 0.14 0.00 90 933.8
20220706060038 64 267 1.0 5.0 0.00 0.14 0.14 90 933.8
20220706055540 65 268 2.0 5.0 0.00 0.14 0.14 90 933.8
20220706055038 65 267 2.0 7.0 0.00 0.14 0.14 91 933.8
20220706054538 64 267 4.0 7.0 0.00 0.14 0.14 91 933.9
20220706054039 64 240 4.0 6.0 0.00 0.14 0.14 90 933.8
20220706053538 64 239 3.0 5.0 0.00 0.14 0.14 89 933.8
20220706053038 65 239 1.0 6.0 0.00 0.14 0.14 88 933.8
20220706052037 66 238 3.0 5.0 0.00 0.14 0.14 86 933.6
20220706051536 66 238 1.0 8.0 0.00 0.14 0.14 88 933.5
20220706051037 65 247 4.0 8.0 0.00 0.14 0.14 89 933.5
20220706050537 65 288 5.0 7.0 0.00 0.14 0.14 89 933.4
20220706050037 66 130 3.0 8.0 0.02 0.14 0.14 89 933.1
20220706045540 67 136 5.0 10.0 0.02 0.14 0.14 88 932.9
20220706045036 67 135 6.0 11.0 0.02 0.14 0.14 88 932.7
20220706044542 67 136 7.0 14.0 0.02 0.14 0.14 87 932.6
20220706044036 68 147 10.0 14.0 0.03 0.14 0.14 87 932.5
20220706043536 68 154 8.0 14.0 0.03 0.14 0.14 87 932.5
20220706043118 68 146 6.0 18.0 0.04 0.14 0.14 87 932.5
20220706042036 68 134 11.0 19.0 0.04 0.14 0.14 88 932.4
20220706041538 69 136 11.0 21.0 0.04 0.14 0.14 88 932.2
20220706041035 69 142 12.0 23.0 0.04 0.14 0.14 88 932.2
20220706040535 69 131 15.0 24.0 0.04 0.14 0.14 88 932.2
20220706040037 69 130 17.0 21.0 0.03 0.13 0.13 88 932.2
20220706035535 69 158 9.0 14.0 0.02 0.12 0.12 89 933.6
20220706035035 69 266 6.0 9.0 0.02 0.12 0.12 89 934.0
20220706034536 69 274 5.0 9.0 0.03 0.12 0.12 88 934.3
20220706034036 69 274 6.0 9.0 0.03 0.12 0.12 88 934.4
20220706033535 69 278 6.0 8.0 0.02 0.11 0.11 89 934.2
20220706033043 70 278 6.0 7.0 0.01 0.10 0.10 90 933.9
20220706032035 70 278 5.0 8.0 0.01 0.10 0.10 90 933.3
20220706031535 70 322 5.0 8.0 0.01 0.10 0.10 90 933.2
20220706031036 70 329 5.0 6.0 0.01 0.10 0.10 88 933.3
20220706030538 70 329 3.0 6.0 0.01 0.10 0.10 88 933.1
20220706030034 71 329 0.0 2.0 0.01 0.10 0.10 88 933.3
20220706025534 71 329 0.0 2.0 0.01 0.10 0.10 87 933.5
20220706025039 71 329 1.0 2.0 0.01 0.10 0.10 87 933.6
20220706024534 72 329 0.0 0.0 0.01 0.10 0.10 86 933.7
20220706024033 72 329 0.0 0.0 0.00 0.09 0.09 84 933.8
20220706023533 71 329 0.0 1.0 0.00 0.09 0.09 82 933.7
20220706023033 71 329 0.0 1.0 0.00 0.09 0.09 83 933.8
20220706022033 72 329 1.0 2.0 0.00 0.09 0.09 83 933.5
20220706021536 73 329 0.0 4.0 0.00 0.09 0.09 80 933.4
20220706021033 73 329 1.0 4.0 0.00 0.09 0.09 79 933.3
20220706020534 73 329 1.0 4.0 0.00 0.09 0.09 77 933.2
20220706020032 73 329 1.0 4.0 0.00 0.09 0.09 78 933.3
20220706015532 73 329 2.0 4.0 0.00 0.09 0.09 79 933.3
20220706015032 73 329 0.0 0.0 0.00 0.09 0.09 78 933.2
20220706014532 73 329 0.0 0.0 0.00 0.09 0.09 78 933.1
20220706014031 74 329 0.0 0.0 0.00 0.09 0.09 77 933.0
20220706013531 74 329 0.0 2.0 0.00 0.09 0.09 75 932.9
20220706013035 74 329 0.0 2.0 0.00 0.09 0.09 74 932.7
20220706012032 75 329 0.0 1.0 0.00 0.09 0.09 71 932.6
20220706011531 76 329 0.0 1.0 0.00 0.09 0.09 70 932.6
20220706011032 76 329 0.0 5.0 0.00 0.09 0.09 67 932.4
20220706010531 77 329 0.0 5.0 0.00 0.09 0.09 65 932.4
20220706010033 78 329 1.0 4.0 0.00 0.09 0.09 64 932.4
20220706005529 78 329 0.0 4.0 0.00 0.09 0.09 59 932.3
20220706005030 79 329 1.0 5.0 0.00 0.09 0.09 61 932.2
20220706004529 79 329 2.0 5.0 0.00 0.09 0.09 62 932.1
20220706004029 79 329 2.0 5.0 0.00 0.09 0.09 61 932.1
20220706003529 78 329 2.0 4.0 0.00 0.09 0.09 62 931.9
20220706003028 78 329 2.0 6.0 0.00 0.09 0.09 64 932.1
20220706002029 78 329 4.0 6.0 0.00 0.09 0.09 64 932.2
20220706001531 78 327 3.0 6.0 0.00 0.09 0.09 68 932.3
20220706001031 77 325 1.0 5.0 0.00 0.09 0.09 69 932.2
20220706000529 77 325 3.0 5.0 0.00 0.09 0.09 67 932.4
20220706000029 77 325 0.0 4.0 0.00 0.09 0.09 71 932.5
20220705235528 77 325 1.0 4.0 0.00 0.09 0.09 69 932.5
20220705235029 76 325 0.0 2.0 0.00 0.09 0.09 70 932.6
20220705234530 76 325 1.0 2.0 0.00 0.09 0.09 71 932.7
20220705234028 76 325 0.0 4.0 0.00 0.09 0.09 73 932.7
20220705233530 76 325 1.0 6.0 0.00 0.09 0.09 72 932.7
20220705233039 77 325 2.0 6.0 0.00 0.09 0.09 69 932.7
20220705232628 78 325 4.0 5.0 0.00 0.09 0.09 66 932.5
20220705232030 78 325 2.0 5.0 0.00 0.09 0.09 66 932.5
20220705231528 79 325 2.0 6.0 0.00 0.09 0.09 64 932.4
20220705231030 79 325 4.0 6.0 0.00 0.09 0.09 60 932.4
20220705230527 79 325 2.0 5.0 0.00 0.09 0.09 61 932.4
20220705230028 79 325 2.0 6.0 0.00 0.09 0.09 62 932.3
20220705225528 80 325 4.0 6.0 0.00 0.09 0.09 59 932.4
20220705225031 80 325 2.0 7.0 0.00 0.09 0.09 59 932.3
20220705224532 80 324 3.0 7.0 0.00 0.09 0.09 60 932.4
20220705224027 80 306 2.0 5.0 0.00 0.09 0.09 60 932.5
20220705223526 81 306 1.0 5.0 0.00 0.09 0.09 57 932.6
20220705223026 81 306 1.0 6.0 0.00 0.09 0.09 56 932.5
20220705222024 80 306 4.0 7.0 0.00 0.09 0.09 59 932.6
20220705221526 80 306 3.0 8.0 0.00 0.09 0.09 61 932.6
20220705221024 80 306 5.0 8.0 0.00 0.09 0.09 61 932.6
20220705220523 80 313 4.0 8.0 0.00 0.09 0.09 63 932.7
20220705220023 80 318 4.0 8.0 0.00 0.09 0.09 59 932.7
20220705215525 80 320 5.0 8.0 0.00 0.09 0.09 63 932.8
20220705215021 79 328 1.0 4.0 0.00 0.09 0.09 61 932.8
20220705214522 79 328 1.0 7.0 0.00 0.09 0.09 58 932.8
20220705214023 79 328 4.0 7.0 0.00 0.09 0.09 59 932.8
20220705213519 79 329 4.0 9.0 0.00 0.09 0.09 59 932.8
20220705213018 79 331 5.0 8.0 0.00 0.09 0.09 62 932.8
20220705212122 77 349 2.0 6.0 0.00 0.09 0.09 63 932.8
20220705211518 77 349 4.0 8.0 0.00 0.09 0.09 62 933.0
20220705211020 78 360 3.0 8.0 0.00 0.09 0.09 61 932.9
20220705210517 78 360 5.0 8.0 0.00 0.09 0.09 61 932.9
20220705210024 78 12 2.0 7.0 0.00 0.09 0.09 64 933.0
20220705205517 77 12 3.0 8.0 0.00 0.09 0.09 61 932.9
20220705205019 77 9 4.0 9.0 0.00 0.09 0.09 66 933.0
20220705204518 77 355 5.0 9.0 0.00 0.09 0.09 65 933.0
20220705204017 77 296 2.0 10.0 0.00 0.09 0.09 67 933.1
20220705203519 78 312 4.0 10.0 0.00 0.09 0.09 62 933.0
20220705203017 78 360 6.0 9.0 0.00 0.09 0.09 64 933.1
20220705202017 78 319 1.0 7.0 0.00 0.09 0.09 62 933.1
20220705201516 77 319 3.0 9.0 0.00 0.09 0.09 63 933.2
20220705201016 77 319 6.0 9.0 0.00 0.09 0.09 64 933.2
20220705200515 77 307 4.0 7.0 0.00 0.09 0.09 63 933.2
20220705200014 77 292 0.0 9.0 0.00 0.09 0.09 68 933.3
20220705195513 76 310 2.0 8.0 0.00 0.09 0.09 67 933.3
20220705195013 75 324 1.0 7.0 0.00 0.09 0.09 69 933.3
20220705194520 76 338 3.0 7.0 0.00 0.09 0.09 66 933.3
20220705194013 76 338 4.0 7.0 0.00 0.09 0.09 71 933.5
20220705193513 75 338 2.0 5.0 0.00 0.09 0.09 69 933.5
20220705193029 75 338 1.0 6.0 0.00 0.09 0.09 66 933.6
20220705192011 76 338 5.0 8.0 0.00 0.09 0.09 67 933.5
20220705191514 76 332 3.0 7.0 0.00 0.09 0.09 68 933.6
20220705191010 76 325 2.0 6.0 0.00 0.09 0.09 68 933.6
20220705190508 76 325 3.0 6.0 0.00 0.09 0.09 66 933.6
20220705190018 76 326 0.0 5.0 0.00 0.10 0.09 67 933.7
20220705185507 75 326 1.0 7.0 0.00 0.10 0.09 67 933.6
20220705185006 75 326 2.0 7.0 0.00 0.10 0.09 69 933.6
20220705184507 75 327 5.0 8.0 0.00 0.10 0.09 69 933.7
20220705184004 75 332 5.0 8.0 0.00 0.10 0.09 67 933.6
20220705183503 75 329 4.0 6.0 0.00 0.10 0.09 72 933.7
20220705183001 75 327 1.0 6.0 0.00 0.10 0.09 69 933.6
20220705182002 74 326 2.0 8.0 0.00 0.10 0.09 71 933.6
20220705181503 74 326 5.0 8.0 0.00 0.10 0.09 71 933.7
20220705181004 74 343 5.0 8.0 0.00 0.10 0.09 71 933.7
20220705180502 75 342 5.0 9.0 0.00 0.10 0.09 71 933.7
20220705180100 75 294 6.0 9.0 0.00 0.10 0.09 72 933.6
20220705175700 74 320 2.0 9.0 0.00 0.10 0.09 69 933.5
20220705145551 65 315 4.0 9.0 0.00 0.10 0.09 86 932.0
20220705145050 65 314 6.0 9.0 0.00 0.10 0.09 87 932.0
20220705144551 64 312 3.0 9.0 0.00 0.10 0.09 87 932.1
20220705144048 64 325 4.0 8.0 0.00 0.10 0.09 87 931.8
20220705143551 63 10 0.0 7.0 0.00 0.10 0.09 87 931.7
20220705143048 63 10 5.0 7.0 0.00 0.10 0.09 87 931.9
20220705142648 62 321 3.0 10.0 0.00 0.10 0.09 89 931.8
20220705142047 62 321 2.0 10.0 0.00 0.10 0.09 89 931.9
20220705141546 62 332 5.0 12.0 0.01 0.10 0.09 88 931.9
20220705141047 62 148 8.0 12.0 0.02 0.10 0.09 87 931.4
20220705140547 62 154 7.0 15.0 0.03 0.10 0.09 87 931.3
20220705140052 62 171 9.0 16.0 0.03 0.10 0.09 87 931.4
20220705135547 62 162 11.0 16.0 0.04 0.10 0.09 88 931.3
20220705135048 62 162 10.0 16.0 0.05 0.10 0.09 89 931.2
20220705134545 62 172 10.0 18.0 0.06 0.10 0.09 89 931.1
20220705134049 62 180 10.0 23.0 0.06 0.10 0.09 89 931.0
20220705133544 62 140 15.0 25.0 0.06 0.10 0.09 89 930.0
20220705133044 62 167 16.0 29.0 0.07 0.10 0.09 89 931.0
20220705132643 62 165 18.0 26.0 0.07 0.10 0.09 91 931.6
20220705132047 62 171 17.0 25.0 0.07 0.10 0.09 91 931.8
20220705131542 62 137 18.0 29.0 0.07 0.10 0.09 91 931.1
20220705131041 63 172 19.0 28.0 0.05 0.08 0.07 92 933.2
20220705130544 63 190 15.0 24.0 0.06 0.08 0.07 91 933.7
20220705130038 63 196 16.0 23.0 0.05 0.07 0.06 91 934.3
20220705125539 63 209 7.0 14.0 0.04 0.06 0.05 91 934.3
20220705125037 63 212 8.0 14.0 0.03 0.05 0.04 92 934.2
20220705124536 63 221 7.0 13.0 0.02 0.04 0.03 93 934.4
20220705124035 63 225 5.0 9.0 0.02 0.04 0.03 93 934.4
20220705123535 63 225 4.0 8.0 0.02 0.04 0.03 94 934.5
20220705123034 63 225 5.0 8.0 0.02 0.04 0.03 94 934.3
20220705122634 63 225 5.0 8.0 0.01 0.03 0.02 95 934.4
20220705122035 63 225 5.0 8.0 0.01 0.03 0.02 95 934.3
20220705121536 63 225 5.0 9.0 0.02 0.03 0.02 95 934.4
20220705121035 63 225 6.0 9.0 0.02 0.03 0.02 95 934.4
20220705120534 63 225 5.0 8.0 0.02 0.03 0.02 95 934.3
20220705120042 63 225 4.0 8.0 0.01 0.03 0.01 95 934.2
20220705115533 63 225 4.0 6.0 0.01 0.03 0.01 95 934.2
20220705115033 63 225 2.0 5.0 0.01 0.03 0.01 95 933.8
20220705114546 63 225 1.0 6.0 0.01 0.03 0.01 95 933.6
20220705114033 63 225 4.0 7.0 0.01 0.03 0.01 96 933.4
20220705113532 63 225 5.0 10.0 0.01 0.03 0.01 96 933.4
20220705113033 63 225 6.0 10.0 0.01 0.03 0.01 96 933.1
20220705112632 63 176 2.0 5.0 0.01 0.03 0.01 95 932.7
20220705112034 63 176 1.0 4.0 0.01 0.03 0.01 95 932.1
20220705111535 63 176 0.0 4.0 0.01 0.03 0.01 95 932.4
20220705111032 62 176 0.0 4.0 0.00 0.02 0.00 95 932.5
20220705110534 62 176 1.0 4.0 0.00 0.02 0.00 95 932.2
20220705110032 62 176 1.0 4.0 0.00 0.02 0.00 95 932.0
20220705105532 63 176 2.0 4.0 0.00 0.02 0.00 95 932.1
20220705105031 63 176 1.0 3.0 0.00 0.02 0.00 95 932.0
20220705104532 63 176 0.0 1.0 0.00 0.02 0.00 95 931.8
20220705104033 63 176 0.0 5.0 0.00 0.02 0.00 95 931.8
20220705103532 63 176 0.0 6.0 0.00 0.02 0.00 95 931.8
20220705103031 62 176 3.0 5.0 0.00 0.02 0.00 95 932.0
20220705102631 63 176 2.0 7.0 0.00 0.02 0.00 94 932.0
20220705102033 63 176 3.0 7.0 0.00 0.02 0.00 95 932.1
20220705101536 63 176 4.0 7.0 0.00 0.02 0.00 95 932.0
20220705101030 63 176 4.0 8.0 0.00 0.02 0.00 95 931.9
20220705100530 63 176 5.0 9.0 0.00 0.02 0.00 95 932.0
20220705100034 63 176 5.0 9.0 0.00 0.02 0.00 95 932.0
20220705095529 63 176 6.0 11.0 0.00 0.02 0.00 95 932.1
20220705095031 63 185 8.0 11.0 0.00 0.02 0.00 95 931.9
20220705094530 63 211 5.0 7.0 0.00 0.02 0.00 95 932.0
20220705094029 63 211 2.0 7.0 0.00 0.02 0.00 95 932.0
20220705093529 63 211 3.0 9.0 0.00 0.02 0.00 95 931.9
20220705093029 63 211 5.0 10.0 0.00 0.02 0.00 95 932.0
20220705092629 63 226 7.0 9.0 0.00 0.02 0.00 95 931.9
20220705092025 63 232 7.0 9.0 0.00 0.02 0.00 95 931.8
20220705091527 63 254 6.0 8.0 0.00 0.02 0.00 95 931.8
20220705091024 63 282 4.0 6.0 0.00 0.02 0.00 94 931.7
20220705090526 63 282 3.0 5.0 0.00 0.02 0.00 94 931.9
20220705090023 64 282 3.0 5.0 0.00 0.02 0.00 94 932.0
20220705085523 64 282 0.0 0.0 0.00 0.02 0.00 94 932.0
20220705085022 64 282 0.0 5.0 0.00 0.02 0.00 94 932.2
20220705084530 64 282 2.0 9.0 0.00 0.02 0.00 94 932.4
20220705084022 64 282 4.0 9.0 0.00 0.02 0.00 94 932.2
20220705083522 64 283 4.0 7.0 0.00 0.02 0.00 94 932.5
20220705083023 64 283 3.0 5.0 0.00 0.02 0.00 94 932.9
20220705082625 64 283 3.0 9.0 0.00 0.02 0.00 94 933.1
20220705082025 64 283 4.0 9.0 0.00 0.02 0.00 94 933.3
20220705081525 64 286 6.0 8.0 0.00 0.02 0.00 95 933.5
20220705081025 64 286 6.0 8.0 0.00 0.02 0.00 95 933.4
20220705080529 64 287 6.0 8.0 0.00 0.02 0.00 95 933.6
20220705080035 63 300 4.0 6.0 0.00 0.02 0.00 94 933.4
20220705075523 63 300 3.0 8.0 0.00 0.02 0.00 94 933.0
20220705075024 63 302 4.0 7.0 0.00 0.02 0.00 94 933.0
20220705074545 63 302 3.0 6.0 0.00 0.02 0.00 94 932.7
20220705074022 63 302 3.0 5.0 0.00 0.02 0.00 93 932.3
20220705073522 63 302 2.0 4.0 0.00 0.02 0.00 93 932.3
20220705073022 64 302 1.0 4.0 0.00 0.02 0.00 93 932.0
20220705072621 64 302 0.0 6.0 0.00 0.02 0.00 93 932.0
20220705072020 64 302 0.0 6.0 0.00 0.02 0.00 93 932.1
20220705071517 64 302 1.0 7.0 0.00 0.02 0.00 93 932.6
20220705071015 64 302 5.0 7.0 0.00 0.02 0.00 94 932.8
20220705070515 64 301 4.0 6.0 0.00 0.02 0.00 94 933.0